RTS weather

CLOSED Marked as duplicate - Rottnest Island Airport
Australia

Public forecast

Using degrees Celsius for public forecast. Weather courtesy of forecast.io.

METAR (pilot weather report)

Closest report is Perth Jandakot Airport, 18.3 nm (34.0 km) ESE. Retrieved 2019/04/23 00:00 UTC (4 minutes ago):

YPJT 230000Z AUTO 14007KT 9999 // NCD 16/10 Q1025 RF00.0/000.0

TAF (pilot weather forecast)

Forecast is more than 12 hours old.

Closest forecast is Perth Jandakot Airport, 18.3 nm (34.0 km) ESE. Retrieved 2019/04/22 00:00 UTC (1 day ago):

TAF YPJT 222232Z 2300/2324 08006KT CAVOK FM230600 21012KT CAVOK FM231400 VRB03KT CAVOK